createdAt,value
2023-03-18T00:01:12.113Z,12.00
2023-03-18T00:03:40.465Z,11.90
2023-03-18T00:06:15.484Z,10.30
2023-03-18T00:08:47.271Z,12.50
2023-03-18T00:11:19.102Z,10.70
2023-03-18T00:13:49.179Z,12.10
2023-03-18T00:16:17.860Z,11.80
2023-03-18T00:18:46.238Z,11.30
2023-03-18T00:21:14.587Z,13.20
2023-03-18T00:23:44.137Z,11.80
2023-03-18T00:26:12.645Z,12.10
2023-03-18T00:28:41.384Z,11.10
2023-03-18T00:31:13.688Z,11.10
2023-03-18T00:33:45.239Z,11.70
2023-03-18T00:36:15.012Z,12.70
2023-03-18T00:38:47.323Z,13.70
2023-03-18T00:41:18.551Z,12.50
2023-03-18T00:43:52.888Z,13.30
2023-03-18T00:46:24.589Z,11.70
2023-03-18T00:48:58.481Z,12.10
2023-03-18T00:51:31.476Z,12.30
2023-03-18T00:54:02.807Z,9.50
2023-03-18T00:56:33.278Z,12.20
2023-03-18T00:59:02.397Z,10.80
2023-03-18T01:01:31.548Z,11.60
2023-03-18T01:04:02.106Z,11.60
2023-03-18T01:06:34.022Z,11.00
2023-03-18T01:09:05.330Z,9.60
2023-03-18T01:11:33.862Z,9.70
2023-03-18T01:14:03.808Z,11.40
2023-03-18T01:16:32.328Z,11.70
2023-03-18T01:19:00.698Z,13.30
2023-03-18T01:21:29.042Z,11.20
2023-03-18T01:23:57.373Z,11.40
2023-03-18T01:26:26.299Z,11.00
2023-03-18T01:28:54.855Z,10.00
2023-03-18T01:31:25.477Z,10.30
2023-03-18T01:33:54.771Z,9.30
2023-03-18T01:36:23.194Z,9.20
2023-03-18T01:38:52.052Z,10.20
2023-03-18T01:41:20.370Z,10.20
2023-03-18T01:43:48.760Z,10.80
2023-03-18T01:46:45.068Z,12.20
2023-03-18T01:52:08.418Z,11.70
2023-03-18T01:55:19.322Z,12.60
2023-03-18T01:57:49.733Z,11.20
2023-03-18T02:00:20.287Z,9.80
2023-03-18T02:02:52.882Z,10.90
2023-03-18T02:07:54.238Z,11.00
2023-03-18T02:10:30.131Z,9.30
2023-03-18T02:13:07.024Z,10.00
2023-03-18T02:16:00.860Z,10.40
2023-03-18T02:18:48.894Z,11.10
2023-03-18T02:21:41.979Z,11.00
2023-03-18T02:24:57.729Z,11.60
2023-03-18T02:27:32.203Z,9.90
2023-03-18T02:30:08.595Z,7.80
2023-03-18T02:32:38.444Z,9.00
2023-03-18T02:35:10.516Z,8.10
2023-03-18T02:37:39.213Z,8.90
2023-03-18T02:40:29.793Z,10.10
2023-03-18T02:43:18.607Z,8.70
2023-03-18T02:45:58.024Z,8.70
2023-03-18T02:48:34.538Z,9.20
2023-03-18T02:51:05.218Z,7.50
2023-03-18T02:53:35.308Z,8.90
2023-03-18T02:56:05.078Z,9.00
2023-03-18T02:58:33.949Z,9.00
2023-03-18T03:01:03.541Z,8.80
2023-03-18T03:03:32.233Z,9.20
2023-03-18T03:06:02.120Z,8.20
2023-03-18T03:08:30.827Z,10.40
2023-03-18T03:10:59.278Z,8.90
2023-03-18T03:13:27.873Z,10.50
2023-03-18T03:15:56.396Z,9.00
2023-03-18T03:18:25.530Z,11.20
2023-03-18T03:20:54.221Z,11.30
2023-03-18T03:23:23.153Z,9.80
2023-03-18T03:25:51.556Z,9.40
2023-03-18T03:28:21.396Z,10.90
2023-03-18T03:30:50.220Z,8.70
2023-03-18T03:33:18.647Z,9.50
2023-03-18T03:35:47.419Z,9.90
2023-03-18T03:38:16.243Z,9.20
2023-03-18T03:40:45.735Z,8.80
2023-03-18T03:43:15.810Z,10.10
2023-03-18T03:45:45.087Z,8.80
2023-03-18T03:48:13.882Z,9.10
2023-03-18T03:50:42.368Z,8.70
2023-03-18T03:53:10.750Z,10.30
2023-03-18T03:55:39.370Z,10.10
2023-03-18T03:58:07.715Z,9.90
2023-03-18T04:00:36.357Z,10.40
2023-03-18T04:03:04.826Z,9.90
2023-03-18T04:05:33.334Z,9.80
2023-03-18T04:08:01.749Z,10.00
2023-03-18T04:10:30.606Z,9.50
2023-03-18T04:12:59.212Z,8.50
2023-03-18T04:15:27.720Z,9.50
2023-03-18T04:17:56.153Z,9.40
2023-03-18T04:20:24.455Z,11.00
2023-03-18T04:22:53.122Z,8.40
2023-03-18T04:25:22.384Z,8.60
2023-03-18T04:27:52.748Z,8.20
2023-03-18T04:30:23.416Z,8.00
2023-03-18T04:32:52.570Z,8.60
2023-03-18T04:35:23.286Z,6.80
2023-03-18T04:37:51.646Z,7.30
2023-03-18T04:40:20.884Z,6.60
2023-03-18T04:42:49.386Z,7.50
2023-03-18T04:45:19.114Z,6.90
2023-03-18T04:47:47.574Z,7.20
2023-03-18T04:50:17.703Z,6.90
2023-03-18T04:52:46.497Z,7.30
2023-03-18T04:55:20.682Z,7.40
2023-03-18T04:57:50.711Z,7.40
2023-03-18T05:00:23.784Z,6.30
2023-03-18T05:02:52.217Z,8.30
2023-03-18T05:05:21.567Z,8.10
2023-03-18T05:07:49.893Z,7.90
2023-03-18T05:10:19.362Z,7.30
2023-03-18T05:12:48.651Z,6.90
2023-03-18T05:15:17.154Z,8.60
2023-03-18T05:17:45.925Z,8.60
2023-03-18T05:20:14.693Z,7.50
2023-03-18T05:22:43.155Z,6.80
2023-03-18T05:25:12.698Z,8.10
2023-03-18T05:27:42.056Z,7.00
2023-03-18T05:30:12.573Z,9.70
2023-03-18T05:32:42.423Z,8.20
2023-03-18T05:35:11.431Z,7.90
2023-03-18T05:37:39.951Z,8.40
2023-03-18T05:40:11.705Z,7.60
2023-03-18T05:42:55.292Z,7.10
2023-03-18T05:45:25.464Z,6.80
2023-03-18T05:47:53.854Z,6.60
2023-03-18T05:50:35.617Z,6.30
2023-03-18T05:53:05.865Z,5.90
2023-03-18T05:55:35.953Z,6.50
2023-03-18T05:58:04.442Z,6.80
2023-03-18T06:00:33.264Z,5.80
2023-03-18T06:03:02.479Z,7.50
2023-03-18T06:05:31.572Z,5.80
2023-03-18T06:08:01.353Z,7.40
2023-03-18T06:10:31.263Z,6.80
2023-03-18T06:13:00.438Z,6.30
2023-03-18T06:15:29.021Z,6.80
2023-03-18T06:17:57.599Z,7.20
2023-03-18T06:20:26.266Z,6.20
2023-03-18T06:22:54.684Z,8.40
2023-03-18T06:25:24.059Z,9.70
2023-03-18T06:27:52.948Z,8.70
2023-03-18T06:30:22.200Z,7.60
2023-03-18T06:32:50.854Z,7.00
2023-03-18T06:35:19.369Z,8.00
2023-03-18T06:37:48.647Z,9.00
2023-03-18T06:40:17.501Z,9.30
2023-03-18T06:42:46.488Z,8.60
2023-03-18T06:45:16.046Z,8.80
2023-03-18T06:47:46.634Z,10.50
2023-03-18T06:50:16.191Z,11.00
2023-03-18T06:52:45.045Z,9.00
2023-03-18T06:55:14.880Z,9.90
2023-03-18T06:57:43.684Z,8.90
2023-03-18T07:00:13.701Z,8.60
2023-03-18T07:02:42.048Z,9.80
2023-03-18T07:05:10.945Z,9.00
2023-03-18T07:07:40.231Z,8.20
2023-03-18T07:10:18.496Z,9.30
2023-03-18T07:12:48.186Z,9.60
2023-03-18T07:15:17.172Z,7.60
2023-03-18T07:17:45.593Z,7.30
2023-03-18T07:20:15.400Z,7.80
2023-03-18T07:22:45.534Z,6.80
2023-03-18T07:25:14.443Z,7.50
2023-03-18T07:27:42.801Z,8.30
2023-03-18T07:30:12.037Z,6.70
2023-03-18T07:32:40.462Z,6.60
2023-03-18T07:35:10.986Z,5.60
2023-03-18T07:37:40.315Z,6.60
2023-03-18T07:40:11.760Z,6.60
2023-03-18T07:42:40.242Z,6.80
2023-03-18T07:45:09.739Z,6.70
2023-03-18T07:47:39.428Z,7.00
2023-03-18T07:50:08.745Z,6.20
2023-03-18T07:52:37.540Z,6.60
2023-03-18T07:55:06.320Z,6.40
2023-03-18T07:57:36.755Z,7.00
2023-03-18T08:00:07.864Z,7.50
2023-03-18T08:02:37.097Z,6.70
2023-03-18T08:05:07.385Z,6.80
2023-03-18T08:07:36.389Z,7.30
2023-03-18T08:10:05.891Z,6.90
2023-03-18T08:12:49.343Z,7.00
2023-03-18T08:15:22.686Z,6.90
2023-03-18T08:17:52.726Z,6.40
2023-03-18T08:20:21.722Z,6.90
2023-03-18T08:22:50.348Z,6.30
2023-03-18T08:25:18.844Z,8.10
2023-03-18T08:27:47.209Z,5.60
2023-03-18T08:30:16.612Z,6.40
2023-03-18T08:32:45.281Z,5.90
2023-03-18T08:35:14.424Z,7.20
2023-03-18T08:37:42.882Z,6.20
2023-03-18T08:40:12.277Z,6.90
2023-03-18T08:42:40.625Z,5.80
2023-03-18T08:45:09.798Z,5.60
2023-03-18T08:47:39.523Z,6.00
2023-03-18T08:50:09.167Z,5.40
2023-03-18T08:52:41.338Z,5.70
2023-03-18T09:05:42.634Z,6.80
2023-03-18T09:08:10.983Z,5.90
2023-03-18T09:10:39.822Z,7.00
2023-03-18T09:13:08.313Z,6.50
2023-03-18T09:15:36.854Z,7.30
2023-03-18T09:18:11.696Z,6.30
2023-03-18T09:20:41.641Z,5.40
2023-03-18T09:23:12.588Z,5.80
2023-03-18T09:25:44.305Z,6.20
2023-03-18T09:28:14.280Z,5.30
2023-03-18T09:30:42.736Z,5.30
2023-03-18T09:33:11.687Z,5.70
2023-03-18T09:35:40.361Z,5.20
2023-03-18T09:38:15.024Z,4.90
2023-03-18T09:41:10.777Z,5.20
2023-03-18T09:44:30.112Z,4.80
2023-03-18T09:47:58.646Z,4.90
2023-03-18T09:50:39.412Z,5.90
2023-03-18T09:53:24.559Z,6.70
2023-03-18T09:55:59.391Z,5.20
2023-03-18T09:58:56.375Z,5.40
2023-03-18T10:01:28.069Z,5.80
2023-03-18T10:04:16.213Z,4.70
2023-03-18T10:06:45.782Z,5.60
2023-03-18T10:09:39.606Z,6.00
2023-03-18T10:12:38.398Z,5.50
2023-03-18T10:15:27.956Z,4.90
2023-03-18T10:18:26.520Z,4.50
2023-03-18T10:21:16.772Z,6.10
2023-03-18T10:24:07.636Z,5.50
2023-03-18T10:26:48.884Z,4.70
2023-03-18T10:29:38.573Z,5.90
2023-03-18T10:32:15.059Z,5.60
2023-03-18T10:35:24.039Z,5.60
2023-03-18T10:38:17.894Z,5.70
2023-03-18T10:40:50.288Z,4.90
2023-03-18T10:43:25.243Z,5.90
2023-03-18T10:48:40.912Z,5.30
2023-03-18T10:51:24.798Z,5.80
2023-03-18T10:54:39.310Z,5.70
2023-03-18T10:57:19.664Z,4.80
2023-03-18T10:59:52.192Z,8.70
2023-03-18T11:02:35.344Z,4.20
2023-03-18T11:05:26.929Z,3.60
2023-03-18T11:08:07.438Z,6.90
2023-03-18T11:10:48.812Z,5.00
2023-03-18T11:13:19.950Z,5.90
2023-03-18T11:15:56.556Z,4.00
2023-03-18T11:18:27.347Z,4.30
2023-03-18T11:21:04.750Z,4.00
2023-03-18T11:23:56.392Z,4.80
2023-03-18T11:26:30.360Z,5.60
2023-03-18T11:29:10.590Z,6.30
2023-03-18T11:32:44.667Z,7.40
2023-03-18T11:35:32.319Z,4.70
2023-03-18T11:38:06.959Z,4.90
2023-03-18T11:40:35.529Z,5.40
2023-03-18T11:43:16.798Z,4.80
2023-03-18T11:46:07.046Z,4.40
2023-03-18T11:48:39.401Z,4.70
2023-03-18T11:51:45.225Z,4.10
2023-03-18T11:54:25.738Z,4.40
2023-03-18T11:57:22.314Z,4.40
2023-03-18T12:00:02.351Z,4.40
2023-03-18T12:02:58.233Z,4.50
2023-03-18T12:06:13.557Z,5.10
2023-03-18T12:09:05.251Z,5.60
2023-03-18T12:12:31.977Z,4.30
2023-03-18T12:18:25.956Z,12.20
2023-03-18T12:21:04.118Z,4.80
2023-03-18T12:23:44.431Z,7.40
2023-03-18T12:26:26.773Z,5.10
2023-03-18T12:29:52.677Z,4.20
2023-03-18T12:32:50.892Z,4.00
2023-03-18T12:35:39.541Z,4.30
2023-03-18T12:38:11.666Z,4.40
2023-03-18T12:41:06.653Z,4.00
2023-03-18T12:44:03.042Z,4.90
2023-03-18T12:46:42.788Z,5.60
2023-03-18T12:49:28.754Z,4.00
2023-03-18T12:52:36.047Z,4.30
2023-03-18T12:55:31.408Z,5.10
2023-03-18T12:58:10.820Z,4.40
2023-03-18T13:00:52.452Z,4.40
2023-03-18T13:03:33.043Z,4.60
2023-03-18T13:06:26.716Z,5.30
2023-03-18T13:09:35.791Z,4.80
2023-03-18T13:12:29.237Z,5.40
2023-03-18T13:15:01.108Z,4.80
2023-03-18T13:17:38.845Z,5.00
2023-03-18T13:20:33.436Z,5.30
2023-03-18T13:23:31.342Z,6.80
2023-03-18T13:26:29.148Z,7.50
2023-03-18T13:29:04.458Z,5.40
2023-03-18T13:32:17.930Z,5.80
2023-03-18T13:35:50.843Z,5.90
2023-03-18T13:38:46.470Z,5.80
2023-03-18T13:42:02.658Z,5.40
2023-03-18T13:45:02.312Z,6.20
2023-03-18T13:47:34.917Z,5.20
2023-03-18T13:50:20.637Z,5.50
2023-03-18T13:52:50.138Z,6.30
2023-03-18T13:55:39.771Z,5.90
2023-03-18T13:58:28.296Z,5.90
2023-03-18T14:00:57.082Z,6.20
2023-03-18T14:03:33.231Z,6.10
2023-03-18T14:06:09.369Z,6.20
2023-03-18T14:08:39.296Z,6.30
2023-03-18T14:11:40.468Z,5.60
2023-03-18T14:14:57.356Z,5.80
2023-03-18T14:17:38.713Z,5.50
2023-03-18T14:20:19.674Z,6.10
2023-03-18T14:22:52.358Z,5.50
2023-03-18T14:25:31.771Z,6.00
2023-03-18T14:28:21.810Z,5.70
2023-03-18T14:31:14.146Z,6.10
2023-03-18T14:34:04.165Z,6.50
2023-03-18T14:37:29.208Z,6.10
2023-03-18T14:40:17.018Z,6.50
2023-03-18T14:43:03.622Z,6.10
2023-03-18T14:45:37.576Z,6.90
2023-03-18T14:48:21.510Z,6.20
2023-03-18T14:50:52.848Z,7.00
2023-03-18T14:53:30.700Z,6.70
2023-03-18T14:56:00.360Z,6.30
2023-03-18T14:58:28.793Z,6.60
2023-03-18T15:01:14.038Z,5.80
2023-03-18T15:03:47.286Z,6.00
2023-03-18T15:06:25.713Z,5.70
2023-03-18T15:09:14.336Z,5.90
2023-03-18T15:11:46.673Z,6.40
2023-03-18T15:14:26.650Z,6.40
2023-03-18T15:17:14.794Z,7.10
2023-03-18T15:19:44.238Z,6.80
2023-03-18T15:22:26.133Z,8.00
2023-03-18T15:25:01.366Z,7.00
2023-03-18T15:27:36.515Z,7.20
2023-03-18T15:30:07.325Z,7.10
2023-03-18T15:32:49.842Z,7.20
2023-03-18T15:35:26.839Z,7.80
2023-03-18T15:38:04.315Z,7.40
2023-03-18T15:40:36.744Z,6.90
2023-03-18T15:43:19.250Z,6.70
2023-03-18T15:45:59.736Z,6.60
2023-03-18T15:48:29.846Z,6.90
2023-03-18T15:51:05.112Z,7.70
2023-03-18T15:53:47.793Z,7.50
2023-03-18T16:05:52.588Z,6.70
2023-03-18T16:08:22.855Z,6.40
2023-03-18T16:10:56.620Z,7.20
2023-03-18T16:13:29.808Z,6.90
2023-03-18T16:15:58.488Z,6.30
2023-03-18T16:18:27.451Z,7.10
2023-03-18T16:20:57.336Z,7.10
2023-03-18T16:23:25.654Z,6.70
2023-03-18T16:25:55.548Z,7.60
2023-03-18T16:28:28.086Z,7.60
2023-03-18T16:30:57.692Z,7.10
2023-03-18T16:33:26.209Z,7.20
2023-03-18T16:36:01.604Z,6.70
2023-03-18T16:38:31.311Z,7.10
2023-03-18T16:40:59.826Z,7.60
2023-03-18T16:43:31.614Z,7.90
2023-03-18T16:46:05.859Z,7.80
2023-03-18T16:48:34.349Z,7.20
2023-03-18T16:51:04.666Z,8.00
2023-03-18T16:53:39.288Z,9.60
2023-03-18T16:56:19.119Z,9.80
2023-03-18T16:58:47.439Z,10.00
2023-03-18T17:01:19.346Z,10.20
2023-03-18T17:03:48.167Z,9.60
2023-03-18T17:06:16.764Z,10.40
2023-03-18T17:08:45.009Z,11.90
2023-03-18T17:11:18.526Z,13.10
2023-03-18T17:13:47.275Z,13.70
2023-03-18T17:16:22.299Z,12.80
2023-03-18T17:18:50.731Z,11.30
2023-03-18T17:21:19.134Z,10.50
2023-03-18T17:23:47.785Z,12.60
2023-03-18T17:26:20.088Z,42.90
2023-03-18T17:28:50.159Z,32.70
2023-03-18T17:31:20.612Z,20.50
2023-03-18T17:33:48.979Z,19.90
2023-03-18T17:36:18.210Z,17.40
2023-03-18T17:38:46.677Z,18.60
2023-03-18T17:41:20.088Z,18.20
2023-03-18T17:43:48.804Z,20.90
2023-03-18T17:46:17.437Z,20.70
2023-03-18T17:48:46.209Z,20.40
2023-03-18T17:51:24.726Z,18.80
2023-03-18T17:53:59.449Z,18.20
2023-03-18T17:56:28.916Z,17.10
2023-03-18T17:58:57.316Z,19.70
2023-03-18T18:01:29.285Z,26.50
2023-03-18T18:04:00.422Z,38.90
2023-03-18T18:06:29.985Z,26.70
2023-03-18T18:09:01.081Z,20.50
2023-03-18T18:11:38.105Z,20.10
2023-03-18T18:14:23.635Z,15.00
2023-03-18T18:16:53.709Z,14.10
2023-03-18T18:19:22.908Z,17.70
2023-03-18T18:21:52.978Z,18.00
2023-03-18T18:24:33.408Z,18.20
2023-03-18T18:27:02.915Z,16.20
2023-03-18T18:29:33.225Z,15.30
2023-03-18T18:32:04.481Z,14.70
2023-03-18T18:34:32.974Z,16.40
2023-03-18T18:37:02.080Z,16.60
2023-03-18T18:39:30.599Z,18.60
2023-03-18T18:41:59.057Z,21.40
2023-03-18T18:44:28.610Z,22.70
2023-03-18T18:46:57.878Z,21.10
2023-03-18T18:49:26.283Z,18.70
2023-03-18T18:51:57.450Z,17.40
2023-03-18T18:54:25.796Z,17.30
2023-03-18T18:56:55.172Z,16.80
2023-03-18T18:59:33.746Z,16.40
2023-03-18T19:02:03.401Z,14.10
2023-03-18T19:04:31.977Z,12.80
2023-03-18T19:07:03.385Z,11.80
2023-03-18T19:09:31.828Z,10.80
2023-03-18T19:12:00.212Z,12.70
2023-03-18T19:14:29.544Z,10.60
2023-03-18T19:16:59.853Z,10.90
2023-03-18T19:19:34.415Z,11.10
2023-03-18T19:22:03.643Z,12.60
2023-03-18T19:24:38.055Z,14.70
2023-03-18T19:27:23.080Z,14.40
2023-03-18T19:29:54.232Z,13.40
2023-03-18T19:32:23.938Z,12.20
2023-03-18T19:34:54.599Z,13.30
2023-03-18T19:37:32.502Z,11.50
2023-03-18T19:40:12.651Z,11.90
2023-03-18T19:42:41.123Z,13.00
2023-03-18T19:45:14.606Z,14.10
2023-03-18T19:47:45.339Z,13.00
2023-03-18T19:50:19.655Z,12.20
2023-03-18T19:52:48.213Z,13.70
2023-03-18T19:55:17.874Z,12.10
2023-03-18T19:57:48.642Z,11.90
2023-03-18T20:00:24.767Z,10.70
2023-03-18T20:02:54.121Z,12.10
2023-03-18T20:05:25.832Z,11.80
2023-03-18T20:07:54.256Z,10.00
2023-03-18T20:10:22.676Z,11.90
2023-03-18T20:12:51.548Z,10.60
2023-03-18T20:15:25.649Z,11.20
2023-03-18T20:17:54.417Z,12.50
2023-03-18T20:20:27.551Z,11.80
2023-03-18T20:23:03.765Z,11.80
2023-03-18T20:25:41.586Z,12.20
2023-03-18T20:28:23.166Z,12.20
2023-03-18T20:30:56.326Z,12.50
2023-03-18T20:33:25.125Z,11.30
2023-03-18T20:35:54.430Z,11.10
2023-03-18T20:38:38.274Z,12.30
2023-03-18T20:41:07.276Z,12.10
2023-03-18T20:43:35.901Z,13.80
2023-03-18T20:46:04.535Z,12.90
2023-03-18T20:48:32.994Z,14.10
2023-03-18T20:51:02.658Z,13.40
2023-03-18T20:53:31.761Z,14.20
2023-03-18T20:56:00.130Z,14.00
2023-03-18T20:58:28.522Z,14.00
2023-03-18T21:00:57.619Z,12.60
2023-03-18T21:03:31.285Z,14.70
2023-03-18T21:06:06.697Z,14.70
2023-03-18T21:11:03.478Z,12.20
2023-03-18T21:13:39.430Z,12.90
2023-03-18T21:16:14.363Z,13.20
2023-03-18T21:18:46.063Z,15.50
2023-03-18T21:21:34.132Z,14.20
2023-03-18T21:24:14.698Z,11.10
2023-03-18T21:26:54.245Z,11.70
2023-03-18T21:29:29.859Z,12.80
2023-03-18T21:31:58.236Z,11.80
2023-03-18T21:34:26.745Z,12.60
2023-03-18T21:36:55.773Z,12.50
2023-03-18T21:39:24.125Z,11.50
2023-03-18T21:41:52.545Z,11.70
2023-03-18T21:44:20.891Z,12.50
2023-03-18T21:46:49.221Z,11.40
2023-03-18T21:49:17.536Z,14.90
2023-03-18T21:51:46.628Z,12.00
2023-03-18T21:54:19.976Z,12.30
2023-03-18T21:56:48.418Z,12.30
2023-03-18T21:59:16.737Z,11.70
2023-03-18T22:01:45.309Z,12.20
2023-03-18T22:04:13.754Z,11.40
2023-03-18T22:06:42.193Z,11.90
2023-03-18T22:09:10.633Z,12.20
2023-03-18T22:11:39.156Z,12.10
2023-03-18T22:14:13.855Z,13.00
2023-03-18T22:16:42.236Z,12.70
2023-03-18T22:19:10.542Z,12.50
2023-03-18T22:21:38.951Z,12.60
2023-03-18T22:24:14.223Z,11.60
2023-03-18T22:26:42.533Z,11.30
2023-03-18T22:29:10.846Z,12.60
2023-03-18T22:31:40.818Z,12.30
2023-03-18T22:34:23.077Z,10.90
2023-03-18T22:36:51.387Z,12.80
2023-03-18T22:39:19.732Z,10.80
2023-03-18T22:41:48.045Z,11.60
2023-03-18T22:44:23.537Z,12.10
2023-03-18T22:46:51.943Z,12.10
2023-03-18T22:49:20.772Z,13.80
2023-03-18T22:51:49.098Z,12.90
2023-03-18T22:54:19.126Z,12.40
2023-03-18T22:56:47.634Z,12.00
2023-03-18T22:59:15.997Z,13.60
2023-03-18T23:01:44.828Z,12.90
2023-03-18T23:04:13.232Z,13.20
2023-03-18T23:06:41.717Z,13.70
2023-03-18T23:09:10.104Z,13.70
2023-03-18T23:11:38.634Z,14.60
2023-03-18T23:14:09.799Z,15.50
2023-03-18T23:16:38.225Z,15.70
2023-03-18T23:19:06.703Z,16.10
2023-03-18T23:21:35.459Z,15.70
2023-03-18T23:24:04.206Z,19.60
2023-03-18T23:26:32.665Z,21.40
2023-03-18T23:29:00.988Z,19.30
2023-03-18T23:31:29.386Z,19.40
2023-03-18T23:33:57.804Z,18.50
2023-03-18T23:36:26.590Z,17.80
2023-03-18T23:38:54.914Z,18.70
2023-03-18T23:41:23.196Z,21.50
2023-03-18T23:43:51.587Z,19.30
2023-03-18T23:46:19.934Z,20.30
2023-03-18T23:48:48.355Z,22.60
2023-03-18T23:51:16.701Z,20.00
2023-03-18T23:53:45.019Z,23.90
2023-03-18T23:56:14.089Z,24.90
2023-03-18T23:58:42.541Z,24.10
